Time;durP1;ratioP1;P1;durP2;ratioP2;P2;SDS_P1;SDS_P2;PMS_P1;PMS_P2;Temp;Humidity;BMP_temperature;BMP_pressure;BME280_temperature;BME280_humidity;BME280_pressure;Samples;Min_cycle;Max_cycle;Signal;HPM_P1;HPM_P2
2023/06/17 00:02:19;;;;;;;;;;;;;;;16.18;75.83;98697.92;107900;1307;22450;-43
2023/06/17 00:04:44;;;;;;;;;;;;;;;16.17;76.01;98701.41;107900;1308;22419;-42
2023/06/17 00:07:10;;;;;;;;;;;;;;;16.17;75.15;98701.58;107917;1307;23633;-43
2023/06/17 00:09:35;;;;;;;;;;;;;;;16.13;75.75;98698.30;107911;1308;22472;-42
2023/06/17 00:12:02;;;;;;;;;;;;;;;16.06;77.78;98696.42;107905;1308;23773;-42
2023/06/17 00:14:27;;;;;;;;;;;;;;;16.02;77.09;98696.64;107923;1308;22441;-43
2023/06/17 00:16:52;;;;;;;;;;;;;;;15.97;78.15;98690.00;107889;1308;22504;-43
2023/06/17 00:19:20;;;;;;;;;;;;;;;15.95;78.92;98685.45;107907;1307;22573;-42
2023/06/17 00:21:49;;;;;;;;;;;;;;;15.89;79.71;98681.13;107915;1308;22458;-42
2023/06/17 00:24:14;;;;;;;;;;;;;;;15.86;77.64;98682.09;107893;1308;22412;-42
2023/06/17 00:26:40;;;;;;;;;;;;;;;15.82;79.13;98683.34;107917;1308;22422;-42
2023/06/17 00:29:05;;;;;;;;;;;;;;;15.81;78.65;98678.69;107901;1308;22470;-42
2023/06/17 00:31:31;;;;;;;;;;;;;;;15.77;80.19;98677.42;107915;1307;22453;-42
2023/06/17 00:33:56;;;;;;;;;;;;;;;15.76;80.27;98679.31;107899;1308;22454;-43
2023/06/17 00:36:21;;;;;;;;;;;;;;;15.72;80.92;98675.31;107913;1307;22422;-42
2023/06/17 00:38:46;;;;;;;;;;;;;;;15.71;78.53;98675.96;107916;1308;23121;-42
2023/06/17 00:41:11;;;;;;;;;;;;;;;15.69;79.46;98678.61;107897;1308;22440;-43
2023/06/17 00:43:37;;;;;;;;;;;;;;;15.67;80.24;98677.70;107894;1308;22442;-42
2023/06/17 00:46:02;;;;;;;;;;;;;;;15.63;80.68;98678.71;107906;1308;22467;-42
2023/06/17 00:48:27;;;;;;;;;;;;;;;15.68;79.51;98683.78;107898;1308;22418;-42
2023/06/17 00:50:52;;;;;;;;;;;;;;;15.73;77.97;98683.05;107891;1308;22430;-42
2023/06/17 00:53:18;;;;;;;;;;;;;;;15.76;77.53;98681.21;107909;1307;22429;-43
2023/06/17 00:55:44;;;;;;;;;;;;;;;15.79;79.67;98681.19;107898;1308;23183;-42
2023/06/17 00:58:11;;;;;;;;;;;;;;;15.80;78.07;98681.23;107915;1307;22432;-43
2023/06/17 01:00:36;;;;;;;;;;;;;;;15.80;77.63;98681.98;107885;1307;22425;-42
2023/06/17 01:03:02;;;;;;;;;;;;;;;15.76;77.76;98675.05;107942;1308;23125;-42
2023/06/17 01:05:28;;;;;;;;;;;;;;;15.74;78.30;98680.83;107914;1308;23231;-42
2023/06/17 01:07:56;;;;;;;;;;;;;;;15.77;78.91;98681.36;107905;1307;22500;-42
2023/06/17 01:10:33;;;;;;;;;;;;;;;15.76;79.61;98676.29;107908;1308;22451;-42
2023/06/17 01:13:00;;;;;;;;;;;;;;;15.71;80.84;98675.41;107927;1308;22460;-43
2023/06/17 01:15:26;;;;;;;;;;;;;;;15.68;80.14;98673.77;107905;1308;22690;-42
2023/06/17 01:17:54;;;;;;;;;;;;;;;15.67;80.60;98676.27;107925;1307;22460;-42
2023/06/17 01:20:20;;;;;;;;;;;;;;;15.65;81.81;98672.54;107900;1307;23290;-42
2023/06/17 01:22:48;;;;;;;;;;;;;;;15.63;80.33;98672.92;107909;1307;22492;-42
2023/06/17 01:25:13;;;;;;;;;;;;;;;15.61;81.19;98677.20;107925;1307;22629;-42
2023/06/17 01:27:39;;;;;;;;;;;;;;;15.58;82.04;98671.95;107932;1307;23098;-42
2023/06/17 01:30:04;;;;;;;;;;;;;;;15.54;82.18;98669.80;107908;1308;22451;-42
2023/06/17 01:32:30;;;;;;;;;;;;;;;15.50;82.43;98670.70;107904;1307;22500;-42
2023/06/17 01:34:59;;;;;;;;;;;;;;;15.43;83.89;98670.41;107927;1307;22444;-42
2023/06/17 01:37:51;;;;;;;;;;;;;;;15.39;84.40;98672.02;107912;1307;22423;-42
2023/06/17 01:40:18;;;;;;;;;;;;;;;15.38;83.29;98676.32;107882;1307;22462;-42
2023/06/17 01:42:45;;;;;;;;;;;;;;;15.33;84.26;98675.09;107917;1307;22689;-43
2023/06/17 01:45:11;;;;;;;;;;;;;;;15.32;84.88;98674.51;107926;1307;23271;-42
2023/06/17 01:47:36;;;;;;;;;;;;;;;15.30;84.87;98670.92;107944;1308;22445;-43
2023/06/17 01:50:03;;;;;;;;;;;;;;;15.30;84.73;98666.75;107886;1308;22626;-41
2023/06/17 01:52:28;;;;;;;;;;;;;;;15.28;85.02;98665.83;107853;1308;23171;-42
2023/06/17 01:54:55;;;;;;;;;;;;;;;15.26;85.61;98665.10;107791;1308;22461;-42
2023/06/17 01:57:21;;;;;;;;;;;;;;;15.24;85.78;98664.77;107792;1308;22458;-42
2023/06/17 01:59:46;;;;;;;;;;;;;;;15.20;85.86;98665.25;107816;1308;22595;-42
2023/06/17 02:02:11;;;;;;;;;;;;;;;15.19;85.92;98663.09;107801;1301;22482;-42
2023/06/17 02:04:36;;;;;;;;;;;;;;;15.21;85.23;98659.73;107787;1308;22488;-42
2023/06/17 02:07:02;;;;;;;;;;;;;;;15.22;85.77;98661.91;107804;1308;22475;-42
2023/06/17 02:09:27;;;;;;;;;;;;;;;15.21;86.01;98661.66;107798;1308;22448;-42
2023/06/17 02:11:52;;;;;;;;;;;;;;;15.19;85.82;98656.86;107828;1308;23285;-43
2023/06/17 02:14:17;;;;;;;;;;;;;;;15.19;85.78;98660.81;107816;1308;22444;-43
2023/06/17 02:16:46;;;;;;;;;;;;;;;15.16;86.48;98661.69;107829;1308;22515;-43
2023/06/17 02:19:12;;;;;;;;;;;;;;;15.16;86.30;98660.84;107822;1308;22510;-43
2023/06/17 02:21:37;;;;;;;;;;;;;;;15.14;86.43;98658.89;107803;1308;22522;-43
2023/06/17 02:24:03;;;;;;;;;;;;;;;15.13;85.91;98662.70;107819;1308;23118;-43
2023/06/17 02:26:28;;;;;;;;;;;;;;;15.15;85.38;98661.31;107785;1308;23272;-42
2023/06/17 02:28:53;;;;;;;;;;;;;;;15.16;85.12;98662.02;107789;1308;23336;-43
2023/06/17 02:31:19;;;;;;;;;;;;;;;15.18;84.98;98661.90;107804;1308;22548;-43
2023/06/17 02:33:44;;;;;;;;;;;;;;;15.18;85.27;98661.18;107808;1308;22424;-43
2023/06/17 02:36:09;;;;;;;;;;;;;;;15.18;85.32;98662.81;107830;1308;22417;-43
2023/06/17 02:38:35;;;;;;;;;;;;;;;15.17;84.71;98664.87;107759;1308;22477;-43
2023/06/17 02:41:01;;;;;;;;;;;;;;;15.14;84.98;98667.70;107821;1308;22423;-43
2023/06/17 02:43:26;;;;;;;;;;;;;;;15.13;85.32;98670.98;107827;1308;22449;-43
2023/06/17 02:45:51;;;;;;;;;;;;;;;15.10;85.75;98672.86;107768;1308;23246;-43
2023/06/17 02:48:16;;;;;;;;;;;;;;;15.08;85.33;98675.45;107791;1308;22441;-42
2023/06/17 02:50:41;;;;;;;;;;;;;;;15.06;85.68;98672.30;107817;1308;23288;-44
2023/06/17 02:53:07;;;;;;;;;;;;;;;15.01;86.29;98677.98;107787;1308;22464;-43
2023/06/17 02:55:32;;;;;;;;;;;;;;;14.96;86.37;98674.15;107769;1308;22446;-43
2023/06/17 02:57:58;;;;;;;;;;;;;;;14.93;85.89;98674.54;107828;1308;22423;-43
2023/06/17 03:00:23;;;;;;;;;;;;;;;14.90;85.92;98674.10;107786;1308;22394;-41
2023/06/17 03:02:49;;;;;;;;;;;;;;;14.87;86.24;98674.94;107795;1308;22410;-41
2023/06/17 03:05:14;;;;;;;;;;;;;;;14.84;86.09;98677.45;107784;1308;22493;-42
2023/06/17 03:07:40;;;;;;;;;;;;;;;14.81;86.82;98678.59;107808;1308;22491;-42
2023/06/17 03:10:05;;;;;;;;;;;;;;;14.83;86.02;98679.49;107657;1308;152360;-42
2023/06/17 03:12:30;;;;;;;;;;;;;;;14.81;86.81;98681.98;107778;1308;22452;-42
2023/06/17 03:16:13;;;;;;;;;;;;;;;14.78;87.44;98684.98;106985;1311;544125;-41
2023/06/17 03:18:38;;;;;;;;;;;;;;;14.74;86.98;98683.19;107363;1313;22447;-41
2023/06/17 03:21:03;;;;;;;;;;;;;;;14.74;86.42;98677.93;107349;1313;22477;-42
2023/06/17 03:23:29;;;;;;;;;;;;;;;14.74;88.05;98676.87;107373;1313;22468;-42
2023/06/17 03:25:55;;;;;;;;;;;;;;;14.76;88.09;98679.50;107363;1313;23154;-42
2023/06/17 03:28:20;;;;;;;;;;;;;;;14.76;87.20;98677.36;107347;1313;23166;-41
2023/06/17 03:30:45;;;;;;;;;;;;;;;14.77;88.92;98678.23;107405;1311;156854;-41
2023/06/17 03:33:14;;;;;;;;;;;;;;;14.79;88.26;98676.27;107517;1311;23272;-42
2023/06/17 03:35:39;;;;;;;;;;;;;;;14.82;88.91;98680.45;107527;1311;23258;-41
2023/06/17 03:38:05;;;;;;;;;;;;;;;14.85;89.05;98678.63;108014;1306;22494;-41
2023/06/17 03:40:30;;;;;;;;;;;;;;;14.88;88.77;98681.34;108036;1306;23571;-41
2023/06/17 03:42:55;;;;;;;;;;;;;;;14.93;88.74;98682.73;108055;1306;22524;-48
2023/06/17 03:45:21;;;;;;;;;;;;;;;14.94;88.80;98682.08;108026;1306;22434;-41
2023/06/17 03:47:46;;;;;;;;;;;;;;;14.96;88.73;98679.98;108030;1306;22475;-41
2023/06/17 03:50:11;;;;;;;;;;;;;;;15.00;88.34;98674.17;108016;1306;23232;-42
2023/06/17 03:52:37;;;;;;;;;;;;;;;15.03;87.97;98674.15;108038;1306;22461;-40
2023/06/17 03:55:02;;;;;;;;;;;;;;;15.02;86.74;98672.80;108024;1306;23541;-41
2023/06/17 03:57:28;;;;;;;;;;;;;;;15.00;88.32;98672.58;108013;1306;22536;-41
2023/06/17 03:59:53;;;;;;;;;;;;;;;15.02;87.51;98670.37;108039;1306;22454;-41
2023/06/17 04:02:18;;;;;;;;;;;;;;;15.05;87.84;98670.97;108033;1306;23126;-42
2023/06/17 04:04:43;;;;;;;;;;;;;;;15.06;87.49;98670.51;108035;1306;23286;-41
2023/06/17 04:07:09;;;;;;;;;;;;;;;15.07;87.14;98672.89;108027;1306;22542;-41
2023/06/17 04:09:34;;;;;;;;;;;;;;;15.09;87.49;98679.79;108025;1306;23689;-42
2023/06/17 04:12:00;;;;;;;;;;;;;;;15.14;86.10;98679.38;108040;1306;23336;-41
2023/06/17 04:14:25;;;;;;;;;;;;;;;15.17;86.77;98680.70;108026;1306;22462;-41
2023/06/17 04:16:50;;;;;;;;;;;;;;;15.21;86.13;98680.38;108017;1306;23318;-42
2023/06/17 04:19:17;;;;;;;;;;;;;;;15.24;85.50;98679.41;108029;1306;23229;-41
2023/06/17 04:21:42;;;;;;;;;;;;;;;15.26;87.03;98681.91;108044;1306;23229;-41
2023/06/17 04:24:08;;;;;;;;;;;;;;;15.30;87.72;98686.88;108048;1307;23154;-41
2023/06/17 04:26:33;;;;;;;;;;;;;;;15.34;87.90;98688.29;108034;1306;22462;-41
2023/06/17 04:29:00;;;;;;;;;;;;;;;15.41;86.85;98692.88;108036;1306;22483;-41
2023/06/17 04:31:27;;;;;;;;;;;;;;;15.47;85.38;98692.14;108020;1306;22505;-41
2023/06/17 04:33:52;;;;;;;;;;;;;;;15.54;86.22;98692.45;108042;1306;23098;-42
2023/06/17 04:36:18;;;;;;;;;;;;;;;15.62;85.97;98690.90;108042;1306;22606;-41
2023/06/17 04:38:44;;;;;;;;;;;;;;;15.68;86.53;98698.08;108017;1306;22465;-41
2023/06/17 04:41:09;;;;;;;;;;;;;;;15.78;85.78;98691.65;108040;1306;22459;-41
2023/06/17 04:43:36;;;;;;;;;;;;;;;15.87;86.37;98697.95;108035;1306;22664;-42
2023/06/17 04:46:02;;;;;;;;;;;;;;;15.92;86.11;98698.41;108021;1306;22522;-41
2023/06/17 04:48:30;;;;;;;;;;;;;;;15.94;85.59;98702.86;108010;1306;22540;-42
2023/06/17 04:50:56;;;;;;;;;;;;;;;15.94;85.19;98707.58;108019;1306;22466;-42
2023/06/17 04:53:21;;;;;;;;;;;;;;;15.99;85.07;98709.77;108032;1306;22469;-42
2023/06/17 04:55:46;;;;;;;;;;;;;;;16.05;84.36;98704.80;107829;1304;23235;-42
2023/06/17 04:58:12;;;;;;;;;;;;;;;16.09;84.44;98701.89;107853;1308;22469;-42
2023/06/17 05:00:37;;;;;;;;;;;;;;;16.14;84.16;98701.94;107796;1308;23242;-42
2023/06/17 05:03:02;;;;;;;;;;;;;;;16.18;83.51;98700.61;107833;1308;23131;-42
2023/06/17 05:05:27;;;;;;;;;;;;;;;16.22;83.24;98701.09;107848;1308;22468;-42
2023/06/17 05:07:52;;;;;;;;;;;;;;;16.20;84.02;98701.59;107851;1308;22614;-42
2023/06/17 05:10:18;;;;;;;;;;;;;;;16.18;83.86;98701.77;107825;1308;22446;-43
2023/06/17 05:12:43;;;;;;;;;;;;;;;16.17;84.06;98701.39;107847;1308;22450;-42
2023/06/17 05:15:08;;;;;;;;;;;;;;;16.17;83.06;98699.39;107838;1307;22468;-42
2023/06/17 05:17:33;;;;;;;;;;;;;;;16.20;83.47;98702.36;107825;1307;22510;-42
2023/06/17 05:19:59;;;;;;;;;;;;;;;16.24;83.45;98701.40;107856;1307;22473;-42
2023/06/17 05:22:24;;;;;;;;;;;;;;;16.28;83.82;98697.30;107872;1307;22443;-41
2023/06/17 05:24:49;;;;;;;;;;;;;;;16.30;83.84;98701.27;107842;1307;23261;-42
2023/06/17 05:27:15;;;;;;;;;;;;;;;16.34;83.31;98703.52;107859;1307;22434;-42
2023/06/17 05:29:40;;;;;;;;;;;;;;;16.33;84.45;98705.77;107826;1307;23148;-41
2023/06/17 05:32:05;;;;;;;;;;;;;;;16.34;84.57;98704.81;107827;1307;22456;-42
2023/06/17 05:34:30;;;;;;;;;;;;;;;16.35;84.78;98704.58;107818;1307;22473;-42
2023/06/17 05:36:55;;;;;;;;;;;;;;;16.37;84.01;98702.27;107857;1307;22435;-42
2023/06/17 05:39:21;;;;;;;;;;;;;;;16.36;83.86;98704.81;107852;1307;22455;-42
2023/06/17 05:41:46;;;;;;;;;;;;;;;16.34;84.63;98703.18;107864;1307;22453;-42
2023/06/17 05:44:11;;;;;;;;;;;;;;;16.38;83.64;98699.73;107849;1307;22513;-42
2023/06/17 05:46:37;;;;;;;;;;;;;;;16.40;84.13;98700.90;107835;1307;22907;-42
2023/06/17 05:49:02;;;;;;;;;;;;;;;16.41;84.32;98702.25;107838;1307;23041;-42
2023/06/17 05:51:28;;;;;;;;;;;;;;;16.43;84.44;98697.14;107846;1307;22448;-42
2023/06/17 05:53:53;;;;;;;;;;;;;;;16.47;84.42;98698.85;107873;1307;22451;-42
2023/06/17 05:56:18;;;;;;;;;;;;;;;16.52;83.73;98703.02;107859;1307;22455;-42
2023/06/17 05:58:43;;;;;;;;;;;;;;;16.57;83.55;98703.69;107851;1307;22469;-43
2023/06/17 06:01:09;;;;;;;;;;;;;;;16.61;83.77;98704.34;107854;1307;22520;-42
2023/06/17 06:03:34;;;;;;;;;;;;;;;16.63;83.58;98703.96;107828;1307;23419;-42
2023/06/17 06:05:59;;;;;;;;;;;;;;;16.65;83.44;98709.29;107846;1307;22543;-43
2023/06/17 06:08:25;;;;;;;;;;;;;;;16.71;82.95;98705.60;107840;1307;22475;-42
2023/06/17 06:10:50;;;;;;;;;;;;;;;16.75;83.15;98699.04;107850;1307;22455;-43
2023/06/17 06:13:15;;;;;;;;;;;;;;;16.80;82.89;98701.05;107843;1307;22776;-43
2023/06/17 06:15:40;;;;;;;;;;;;;;;16.85;83.46;98701.16;107835;1307;22459;-42
2023/06/17 06:18:06;;;;;;;;;;;;;;;16.88;83.32;98702.83;107850;1307;22465;-42
2023/06/17 06:20:31;;;;;;;;;;;;;;;16.92;83.65;98706.17;107811;1307;23302;-42
2023/06/17 06:22:57;;;;;;;;;;;;;;;16.97;82.82;98708.91;107839;1307;22442;-42
2023/06/17 06:25:22;;;;;;;;;;;;;;;17.01;82.98;98709.14;107848;1307;22541;-43
2023/06/17 06:27:48;;;;;;;;;;;;;;;17.09;83.05;98710.36;107850;1307;22443;-42
2023/06/17 06:30:13;;;;;;;;;;;;;;;17.12;82.74;98712.02;107861;1307;22479;-42
2023/06/17 06:32:38;;;;;;;;;;;;;;;17.12;82.61;98719.57;107849;1307;22438;-42
2023/06/17 06:35:04;;;;;;;;;;;;;;;17.21;82.32;98721.05;107846;1307;22486;-42
2023/06/17 06:37:29;;;;;;;;;;;;;;;17.34;81.53;98720.05;107847;1307;22548;-43
2023/06/17 06:39:54;;;;;;;;;;;;;;;17.45;81.17;98722.40;107855;1307;22454;-42
2023/06/17 06:42:20;;;;;;;;;;;;;;;17.55;80.80;98720.23;107866;1307;23163;-42
2023/06/17 06:44:45;;;;;;;;;;;;;;;17.62;80.39;98720.95;107869;1307;22447;-42
2023/06/17 06:47:10;;;;;;;;;;;;;;;17.68;80.60;98717.97;107846;1307;22454;-42
2023/06/17 06:49:35;;;;;;;;;;;;;;;17.74;80.31;98722.20;107837;1308;22455;-42
2023/06/17 06:52:01;;;;;;;;;;;;;;;17.83;80.30;98722.73;107835;1308;22488;-42
2023/06/17 06:54:26;;;;;;;;;;;;;;;17.89;80.16;98723.70;107852;1307;22530;-43
2023/06/17 06:56:51;;;;;;;;;;;;;;;17.93;79.66;98722.59;107861;1307;22447;-43
2023/06/17 06:59:16;;;;;;;;;;;;;;;18.00;79.95;98722.56;107849;1307;25225;-43
2023/06/17 07:01:41;;;;;;;;;;;;;;;18.04;80.04;98717.62;107840;1308;22445;-43
2023/06/17 07:04:07;;;;;;;;;;;;;;;18.12;79.63;98716.90;107854;1307;23213;-42
2023/06/17 07:06:32;;;;;;;;;;;;;;;18.19;78.79;98716.02;107884;1308;22647;-42
2023/06/17 07:08:57;;;;;;;;;;;;;;;18.22;78.30;98716.42;107865;1308;23148;-42
2023/06/17 07:11:22;;;;;;;;;;;;;;;18.28;78.41;98713.23;107870;1308;22445;-42
2023/06/17 07:13:47;;;;;;;;;;;;;;;18.34;78.17;98715.06;107851;1308;23207;-43
2023/06/17 07:16:13;;;;;;;;;;;;;;;18.40;76.71;98716.86;107886;1308;22471;-43
2023/06/17 07:18:38;;;;;;;;;;;;;;;18.47;76.92;98717.92;107879;1308;22566;-42
2023/06/17 07:21:03;;;;;;;;;;;;;;;18.54;76.93;98719.22;107880;1286;22517;-42
2023/06/17 07:23:28;;;;;;;;;;;;;;;18.65;76.84;98721.00;107868;1308;22506;-43
2023/06/17 07:25:53;;;;;;;;;;;;;;;18.74;76.45;98718.45;107870;1308;22561;-42
2023/06/17 07:28:19;;;;;;;;;;;;;;;18.83;76.01;98714.42;107857;1308;23392;-42
2023/06/17 07:30:44;;;;;;;;;;;;;;;18.91;75.32;98715.63;107861;1308;22512;-42
2023/06/17 07:33:09;;;;;;;;;;;;;;;18.97;75.31;98711.65;107854;1308;22441;-42
2023/06/17 07:35:35;;;;;;;;;;;;;;;19.05;75.26;98705.57;107877;1308;22469;-42
2023/06/17 07:38:00;;;;;;;;;;;;;;;19.12;75.18;98704.59;107842;1308;23634;-43
2023/06/17 07:40:25;;;;;;;;;;;;;;;19.19;74.68;98706.61;107859;1308;22465;-43
2023/06/17 07:42:50;;;;;;;;;;;;;;;19.25;74.69;98706.89;107881;1308;22471;-43
2023/06/17 07:45:16;;;;;;;;;;;;;;;19.33;74.39;98705.27;107855;1308;23472;-42
2023/06/17 07:47:41;;;;;;;;;;;;;;;19.39;74.77;98701.56;107858;1308;22486;-41
2023/06/17 07:50:08;;;;;;;;;;;;;;;19.46;74.64;98700.68;107848;1308;23217;-42
2023/06/17 07:52:35;;;;;;;;;;;;;;;19.55;74.66;98699.20;107868;1308;22426;-41
2023/06/17 07:55:00;;;;;;;;;;;;;;;19.65;74.51;98695.03;107853;1308;22441;-42
2023/06/17 07:57:25;;;;;;;;;;;;;;;19.73;74.12;98692.83;107867;1308;22470;-42
2023/06/17 07:59:51;;;;;;;;;;;;;;;19.82;73.39;98697.63;107890;1308;22504;-42
2023/06/17 08:02:16;;;;;;;;;;;;;;;19.84;72.02;98699.88;107862;1308;22524;-42
2023/06/17 08:04:41;;;;;;;;;;;;;;;19.88;72.38;98695.86;107878;1308;23266;-42
2023/06/17 08:07:07;;;;;;;;;;;;;;;19.96;72.64;98693.27;107865;1308;22543;-42
2023/06/17 08:09:32;;;;;;;;;;;;;;;20.04;71.84;98692.07;107880;1308;22458;-42
2023/06/17 08:11:57;;;;;;;;;;;;;;;20.14;71.92;98689.08;107894;1308;22509;-42
2023/06/17 08:14:23;;;;;;;;;;;;;;;20.27;72.12;98689.31;107868;1308;22483;-42
2023/06/17 08:16:48;;;;;;;;;;;;;;;20.42;70.37;98693.34;107854;1292;22510;-42
2023/06/17 08:19:14;;;;;;;;;;;;;;;20.50;69.29;98688.70;107875;1307;22564;-42
2023/06/17 08:21:41;;;;;;;;;;;;;;;20.64;69.71;98690.31;107890;1307;23280;-43
2023/06/17 08:24:17;;;;;;;;;;;;;;;20.74;68.68;98694.91;107876;1307;22448;-42
2023/06/17 08:26:43;;;;;;;;;;;;;;;20.81;67.42;98690.44;107873;1308;23228;-43
2023/06/17 08:29:10;;;;;;;;;;;;;;;20.89;66.49;98689.20;107881;1307;22522;-43
2023/06/17 08:31:35;;;;;;;;;;;;;;;20.95;65.87;98688.05;107843;1307;23188;-42
2023/06/17 08:34:00;;;;;;;;;;;;;;;21.12;66.42;98684.30;107822;1307;22499;-43
2023/06/17 08:36:25;;;;;;;;;;;;;;;21.33;66.01;98691.90;107857;1307;22725;-43
2023/06/17 08:38:51;;;;;;;;;;;;;;;21.45;63.45;98689.94;107869;1307;22470;-42
2023/06/17 08:41:16;;;;;;;;;;;;;;;21.58;62.88;98694.54;107863;1307;22448;-43
2023/06/17 08:43:42;;;;;;;;;;;;;;;21.74;62.08;98696.22;107867;1289;22466;-42
2023/06/17 08:46:08;;;;;;;;;;;;;;;21.86;61.49;98695.05;107849;1307;22467;-41
2023/06/17 08:48:34;;;;;;;;;;;;;;;22.00;61.60;98699.52;107895;1307;22566;-41
2023/06/17 08:51:00;;;;;;;;;;;;;;;22.13;60.75;98698.77;107889;1307;22420;-41
2023/06/17 08:53:26;;;;;;;;;;;;;;;22.30;61.34;98696.67;107841;1307;22433;-41
2023/06/17 08:55:51;;;;;;;;;;;;;;;22.47;59.87;98697.43;107882;1307;22946;-41
2023/06/17 08:58:16;;;;;;;;;;;;;;;22.52;59.23;98695.84;107858;1307;22416;-42
2023/06/17 09:00:41;;;;;;;;;;;;;;;22.60;59.20;98695.99;107850;1307;22479;-42
2023/06/17 09:03:08;;;;;;;;;;;;;;;22.65;58.55;98695.10;107865;1307;22532;-42
2023/06/17 09:05:33;;;;;;;;;;;;;;;22.67;57.65;98696.62;107885;1307;22469;-42
2023/06/17 09:07:58;;;;;;;;;;;;;;;22.71;57.72;98691.51;107837;1307;22489;-42
2023/06/17 09:10:23;;;;;;;;;;;;;;;22.79;57.94;98698.41;107873;1307;25427;-42
2023/06/17 09:12:48;;;;;;;;;;;;;;;22.90;56.61;98686.89;107862;1307;22455;-42
2023/06/17 09:15:15;;;;;;;;;;;;;;;23.30;57.79;98684.67;107833;1307;22497;-42
2023/06/17 09:17:42;;;;;;;;;;;;;;;23.59;54.67;98679.98;107858;1307;22460;-41
2023/06/17 09:20:08;;;;;;;;;;;;;;;23.66;52.06;98682.31;107882;1307;22447;-41
2023/06/17 09:22:35;;;;;;;;;;;;;;;23.62;52.97;98682.86;107850;1307;22446;-42
2023/06/17 09:25:00;;;;;;;;;;;;;;;23.54;52.06;98682.77;107883;1307;22448;-42
2023/06/17 09:27:26;;;;;;;;;;;;;;;23.71;50.85;98680.24;107885;1307;22458;-40
2023/06/17 09:30:06;;;;;;;;;;;;;;;23.80;52.23;98684.35;107858;1307;22482;-42
2023/06/17 09:32:39;;;;;;;;;;;;;;;23.91;51.47;98683.23;107911;1307;22448;-42
2023/06/17 09:35:05;;;;;;;;;;;;;;;24.25;51.98;98683.47;107887;1307;22465;-41
2023/06/17 09:37:30;;;;;;;;;;;;;;;24.54;49.27;98684.86;107883;1307;22437;-42
2023/06/17 09:39:58;;;;;;;;;;;;;;;24.84;49.11;98676.42;107861;1307;22731;-41
2023/06/17 09:42:30;;;;;;;;;;;;;;;25.03;48.96;98669.05;107866;1307;23219;-42
2023/06/17 09:44:55;;;;;;;;;;;;;;;25.27;47.92;98678.96;107878;1307;22438;-42
2023/06/17 09:47:31;;;;;;;;;;;;;;;25.15;46.96;98684.20;107157;1308;22596;-41
2023/06/17 09:49:56;;;;;;;;;;;;;;;25.66;48.14;98680.06;107846;1308;22854;-41
2023/06/17 09:52:22;;;;;;;;;;;;;;;25.78;47.48;98683.45;107857;1308;23203;-41
2023/06/17 09:54:49;;;;;;;;;;;;;;;25.38;47.10;98686.39;107876;1308;22452;-43
2023/06/17 09:57:17;;;;;;;;;;;;;;;25.13;48.05;98687.91;107869;1308;23207;-42
2023/06/17 09:59:43;;;;;;;;;;;;;;;24.83;47.73;98687.71;107862;1308;22449;-42
2023/06/17 10:02:09;;;;;;;;;;;;;;;24.55;48.15;98686.64;107852;1308;22610;-42
2023/06/17 10:04:34;;;;;;;;;;;;;;;24.36;48.53;98682.36;107849;1292;22431;-41
2023/06/17 10:07:00;;;;;;;;;;;;;;;24.38;49.25;98680.48;107880;1307;22452;-42
2023/06/17 10:09:25;;;;;;;;;;;;;;;24.43;48.18;98678.55;107878;1308;23067;-42
2023/06/17 10:11:52;;;;;;;;;;;;;;;24.34;48.12;98677.28;107886;1307;22488;-42
2023/06/17 10:14:22;;;;;;;;;;;;;;;24.13;48.34;98676.73;107894;1308;22483;-42
2023/06/17 10:16:48;;;;;;;;;;;;;;;23.76;49.22;98678.48;107897;1307;22456;-42
2023/06/17 10:19:16;;;;;;;;;;;;;;;23.62;49.96;98675.52;107872;1307;22514;-42
2023/06/17 10:21:45;;;;;;;;;;;;;;;23.46;50.19;98678.89;107899;1308;22477;-43
2023/06/17 10:24:11;;;;;;;;;;;;;;;23.27;50.79;98678.60;107882;1308;22477;-42
2023/06/17 10:26:36;;;;;;;;;;;;;;;23.13;51.27;98681.67;107899;1308;22465;-42
2023/06/17 10:29:06;;;;;;;;;;;;;;;23.11;51.02;98677.39;107907;1308;22471;-42
2023/06/17 10:31:31;;;;;;;;;;;;;;;23.04;51.95;98678.92;107888;1308;22451;-42
2023/06/17 10:34:00;;;;;;;;;;;;;;;23.01;51.12;98676.45;107887;1308;22492;-42
2023/06/17 10:36:26;;;;;;;;;;;;;;;23.27;51.11;98675.92;107884;1308;22474;-42
2023/06/17 10:39:11;;;;;;;;;;;;;;;23.55;50.31;98674.16;107897;1308;22462;-42
2023/06/17 10:41:42;;;;;;;;;;;;;;;23.95;50.26;98669.97;107889;1307;22476;-42
2023/06/17 10:44:19;;;;;;;;;;;;;;;24.61;47.18;98671.25;107855;1288;22634;-42
2023/06/17 10:46:46;;;;;;;;;;;;;;;24.74;45.83;98670.16;107865;1308;22558;-43
2023/06/17 10:49:13;;;;;;;;;;;;;;;24.71;45.52;98671.31;107885;1308;22482;-42
2023/06/17 10:51:44;;;;;;;;;;;;;;;24.78;46.52;98681.29;107922;1308;22465;-42
2023/06/17 10:54:10;;;;;;;;;;;;;;;24.57;45.47;98675.96;107868;1308;22469;-42
2023/06/17 10:56:45;;;;;;;;;;;;;;;25.04;46.61;98675.35;107896;1308;22476;-42
2023/06/17 10:59:10;;;;;;;;;;;;;;;25.89;44.64;98677.76;107874;1308;22458;-45
2023/06/17 11:01:39;;;;;;;;;;;;;;;26.78;46.32;98681.20;107866;1308;22485;-42
2023/06/17 11:04:07;;;;;;;;;;;;;;;27.05;41.90;98685.24;107897;1308;23671;-42
2023/06/17 11:06:32;;;;;;;;;;;;;;;26.83;40.57;98685.29;107911;1308;22489;-42
2023/06/17 11:08:57;;;;;;;;;;;;;;;26.57;42.54;98686.67;107873;1308;22503;-42
2023/06/17 11:11:22;;;;;;;;;;;;;;;26.30;42.69;98684.06;107891;1308;23260;-42
2023/06/17 11:13:48;;;;;;;;;;;;;;;25.78;41.77;98686.64;107891;1308;22569;-42
2023/06/17 11:16:14;;;;;;;;;;;;;;;25.62;43.04;98686.95;107090;1308;22559;-40
2023/06/17 11:18:43;;;;;;;;;;;;;;;25.61;41.89;98690.95;107062;1308;22503;-40
2023/06/17 11:21:08;;;;;;;;;;;;;;;25.99;41.45;98683.73;107890;1308;22459;-40
2023/06/17 11:23:35;;;;;;;;;;;;;;;25.99;42.19;98679.98;107890;1308;23103;-40
2023/06/17 11:26:01;;;;;;;;;;;;;;;25.85;41.75;98682.27;107908;1307;22447;-41
2023/06/17 11:28:27;;;;;;;;;;;;;;;25.85;42.72;98682.72;107865;1308;23119;-41
2023/06/17 11:30:53;;;;;;;;;;;;;;;25.92;42.29;98678.27;107881;1308;22469;-41
2023/06/17 11:33:20;;;;;;;;;;;;;;;25.77;42.93;98673.32;107862;1308;23145;-41
2023/06/17 11:35:46;;;;;;;;;;;;;;;25.49;42.94;98675.47;107876;1308;23191;-41
2023/06/17 11:38:11;;;;;;;;;;;;;;;25.16;43.52;98676.26;107878;1308;22483;-41
2023/06/17 11:40:39;;;;;;;;;;;;;;;24.91;44.43;98677.98;107890;1308;23245;-41
2023/06/17 11:43:05;;;;;;;;;;;;;;;24.74;44.26;98678.22;107868;1308;23094;-42
2023/06/17 11:45:31;;;;;;;;;;;;;;;24.46;44.60;98676.94;107877;1307;22707;-41
2023/06/17 11:47:57;;;;;;;;;;;;;;;24.38;45.03;98674.94;107893;1308;22458;-41
2023/06/17 11:50:27;;;;;;;;;;;;;;;24.12;45.37;98678.30;107883;1308;22459;-41
2023/06/17 11:52:58;;;;;;;;;;;;;;;24.09;45.71;98679.20;107889;1308;22524;-42
2023/06/17 11:55:30;;;;;;;;;;;;;;;24.01;45.92;98676.99;107892;1307;22547;-42
2023/06/17 11:57:56;;;;;;;;;;;;;;;23.96;46.13;98682.72;107882;1307;23246;-42
2023/06/17 12:00:22;;;;;;;;;;;;;;;23.90;46.21;98685.04;107885;1308;22520;-42
2023/06/17 12:02:47;;;;;;;;;;;;;;;23.87;46.49;98680.73;107913;1308;22473;-47
2023/06/17 12:05:13;;;;;;;;;;;;;;;23.90;46.55;98685.20;107865;1308;22478;-42
2023/06/17 12:07:41;;;;;;;;;;;;;;;23.98;46.79;98683.70;107689;1304;22549;-42
2023/06/17 12:10:07;;;;;;;;;;;;;;;23.95;46.74;98682.99;107881;1308;22526;-42
2023/06/17 12:12:34;;;;;;;;;;;;;;;24.00;46.82;98681.04;107880;1308;22522;-41
2023/06/17 12:15:12;;;;;;;;;;;;;;;24.10;46.73;98682.23;107898;1308;22573;-41
2023/06/17 12:17:41;;;;;;;;;;;;;;;24.20;45.92;98678.80;107890;1308;22512;-42
2023/06/17 12:20:11;;;;;;;;;;;;;;;24.24;45.88;98677.58;107907;1307;23278;-41
2023/06/17 12:22:37;;;;;;;;;;;;;;;24.33;45.73;98680.52;107882;1306;22444;-42
2023/06/17 12:25:02;;;;;;;;;;;;;;;24.34;45.01;98677.34;107876;1307;22557;-42
2023/06/17 12:27:29;;;;;;;;;;;;;;;24.68;45.11;98678.31;107866;1307;22440;-41
2023/06/17 12:29:54;;;;;;;;;;;;;;;24.91;44.96;98670.69;107890;1307;22523;-42
2023/06/17 12:32:19;;;;;;;;;;;;;;;25.17;44.13;98669.94;107849;1307;22476;-41